sensor_id;sensor_type;location;lat;lon;timestamp;pressure;altitude;pressure_sealevel;temperature;humidity
36248;BME280;22287;50.824;5.644;2023-02-28T00:01:07;102131.38;;;2.26;59.99
36248;BME280;22287;50.824;5.644;2023-02-28T00:03:33;102130.19;;;2.36;60.15
36248;BME280;22287;50.824;5.644;2023-02-28T00:06:03;102127.69;;;2.60;59.41
36248;BME280;22287;50.824;5.644;2023-02-28T00:08:30;102131.00;;;2.38;60.31
36248;BME280;22287;50.824;5.644;2023-02-28T00:11:05;102130.59;;;2.21;60.51
36248;BME280;22287;50.824;5.644;2023-02-28T00:13:34;102128.69;;;2.26;60.31
36248;BME280;22287;50.824;5.644;2023-02-28T00:16:04;102123.78;;;2.42;59.94
36248;BME280;22287;50.824;5.644;2023-02-28T00:18:31;102123.38;;;2.25;60.17
36248;BME280;22287;50.824;5.644;2023-02-28T00:20:58;102131.06;;;2.37;59.98
36248;BME280;22287;50.824;5.644;2023-02-28T00:23:26;102128.66;;;2.57;59.23
36248;BME280;22287;50.824;5.644;2023-02-28T00:25:53;102129.28;;;2.05;60.54
36248;BME280;22287;50.824;5.644;2023-02-28T00:28:20;102127.00;;;2.53;59.84
36248;BME280;22287;50.824;5.644;2023-02-28T00:30:47;102131.38;;;2.56;59.13
36248;BME280;22287;50.824;5.644;2023-02-28T00:33:14;102124.63;;;2.73;58.92
36248;BME280;22287;50.824;5.644;2023-02-28T00:35:41;102131.97;;;2.36;59.55
36248;BME280;22287;50.824;5.644;2023-02-28T00:38:08;102130.00;;;2.43;59.24
36248;BME280;22287;50.824;5.644;2023-02-28T00:40:35;102130.59;;;2.21;59.78
36248;BME280;22287;50.824;5.644;2023-02-28T00:43:02;102142.31;;;2.16;59.81
36248;BME280;22287;50.824;5.644;2023-02-28T00:45:29;102138.41;;;2.29;59.41
36248;BME280;22287;50.824;5.644;2023-02-28T00:47:56;102137.53;;;2.28;59.48
36248;BME280;22287;50.824;5.644;2023-02-28T00:50:23;102144.59;;;2.29;60.06
36248;BME280;22287;50.824;5.644;2023-02-28T00:52:50;102144.47;;;2.03;60.72
36248;BME280;22287;50.824;5.644;2023-02-28T00:55:16;102145.50;;;1.98;60.77
36248;BME280;22287;50.824;5.644;2023-02-28T00:57:44;102144.06;;;2.17;59.55
36248;BME280;22287;50.824;5.644;2023-02-28T01:00:12;102145.91;;;2.15;59.53
36248;BME280;22287;50.824;5.644;2023-02-28T01:02:39;102148.22;;;2.27;59.71
36248;BME280;22287;50.824;5.644;2023-02-28T01:05:07;102141.47;;;2.15;59.65
36248;BME280;22287;50.824;5.644;2023-02-28T01:07:34;102157.75;;;2.35;59.23
36248;BME280;22287;50.824;5.644;2023-02-28T01:10:01;102141.81;;;2.34;58.98
36248;BME280;22287;50.824;5.644;2023-02-28T01:12:28;102141.81;;;2.34;59.42
36248;BME280;22287;50.824;5.644;2023-02-28T01:14:57;102146.66;;;2.51;58.31
36248;BME280;22287;50.824;5.644;2023-02-28T01:17:24;102149.72;;;2.06;59.83
36248;BME280;22287;50.824;5.644;2023-02-28T01:19:53;102150.44;;;2.11;59.42
36248;BME280;22287;50.824;5.644;2023-02-28T01:22:24;102152.13;;;2.15;59.49
36248;BME280;22287;50.824;5.644;2023-02-28T01:24:51;102147.78;;;2.11;59.21
36248;BME280;22287;50.824;5.644;2023-02-28T01:27:18;102143.72;;;1.97;59.66
36248;BME280;22287;50.824;5.644;2023-02-28T01:29:44;102146.38;;;1.98;59.96
36248;BME280;22287;50.824;5.644;2023-02-28T01:32:11;102146.84;;;1.80;60.23
36248;BME280;22287;50.824;5.644;2023-02-28T01:34:38;102153.56;;;1.95;60.31
36248;BME280;22287;50.824;5.644;2023-02-28T01:37:05;102141.28;;;1.89;59.77
36248;BME280;22287;50.824;5.644;2023-02-28T01:39:32;102146.56;;;1.91;60.23
36248;BME280;22287;50.824;5.644;2023-02-28T01:41:58;102134.69;;;2.02;60.03
36248;BME280;22287;50.824;5.644;2023-02-28T01:47:21;102147.34;;;1.62;61.44
36248;BME280;22287;50.824;5.644;2023-02-28T01:49:49;102140.75;;;1.76;61.01
36248;BME280;22287;50.824;5.644;2023-02-28T01:52:18;102143.03;;;1.90;60.43
36248;BME280;22287;50.824;5.644;2023-02-28T01:54:52;102134.97;;;1.93;60.09
36248;BME280;22287;50.824;5.644;2023-02-28T01:57:24;102136.38;;;2.06;59.59
36248;BME280;22287;50.824;5.644;2023-02-28T01:59:59;102134.91;;;1.61;60.76
36248;BME280;22287;50.824;5.644;2023-02-28T02:02:28;102135.56;;;1.70;61.34
36248;BME280;22287;50.824;5.644;2023-02-28T02:05:07;102133.53;;;1.80;60.58
36248;BME280;22287;50.824;5.644;2023-02-28T02:07:37;102133.09;;;1.63;61.29
36248;BME280;22287;50.824;5.644;2023-02-28T02:10:24;102129.97;;;1.79;61.13
36248;BME280;22287;50.824;5.644;2023-02-28T02:16:32;102120.84;;;1.88;60.57
36248;BME280;22287;50.824;5.644;2023-02-28T02:27:17;102117.44;;;1.85;59.96
36248;BME280;22287;50.824;5.644;2023-02-28T02:38:33;102111.88;;;1.25;61.96
36248;BME280;22287;50.824;5.644;2023-02-28T02:41:18;102119.16;;;1.16;61.62
36248;BME280;22287;50.824;5.644;2023-02-28T02:43:53;102119.63;;;0.97;62.47
36248;BME280;22287;50.824;5.644;2023-02-28T02:46:37;102121.19;;;0.69;62.18
36248;BME280;22287;50.824;5.644;2023-02-28T02:49:09;102123.16;;;0.59;62.68
36248;BME280;22287;50.824;5.644;2023-02-28T02:51:41;102121.97;;;0.72;62.54
36248;BME280;22287;50.824;5.644;2023-02-28T02:54:15;102120.50;;;0.59;62.33
36248;BME280;22287;50.824;5.644;2023-02-28T02:56:46;102119.94;;;0.83;61.72
36248;BME280;22287;50.824;5.644;2023-02-28T02:59:17;102118.63;;;1.02;60.94
36248;BME280;22287;50.824;5.644;2023-02-28T03:01:51;102125.63;;;1.06;61.11
36248;BME280;22287;50.824;5.644;2023-02-28T03:04:19;102116.69;;;1.10;60.45
36248;BME280;22287;50.824;5.644;2023-02-28T03:06:46;102114.97;;;1.06;60.82
36248;BME280;22287;50.824;5.644;2023-02-28T03:09:13;102118.59;;;0.66;62.52
36248;BME280;22287;50.824;5.644;2023-02-28T03:11:41;102120.94;;;0.79;62.37
36248;BME280;22287;50.824;5.644;2023-02-28T03:14:37;102117.00;;;0.57;61.65
36248;BME280;22287;50.824;5.644;2023-02-28T03:22:45;102117.31;;;0.42;62.47
36248;BME280;22287;50.824;5.644;2023-02-28T03:28:00;102118.38;;;0.35;62.15
36248;BME280;22287;50.824;5.644;2023-02-28T03:30:56;102106.84;;;0.36;62.89
36248;BME280;22287;50.824;5.644;2023-02-28T03:33:31;102103.53;;;0.25;63.11
36248;BME280;22287;50.824;5.644;2023-02-28T03:36:05;102108.22;;;0.53;62.61
36248;BME280;22287;50.824;5.644;2023-02-28T03:41:15;102114.34;;;0.95;61.52
36248;BME280;22287;50.824;5.644;2023-02-28T03:43:56;102113.63;;;0.89;61.14
36248;BME280;22287;50.824;5.644;2023-02-28T03:46:28;102122.97;;;0.27;64.57
36248;BME280;22287;50.824;5.644;2023-02-28T03:49:14;102117.94;;;1.31;61.62
36248;BME280;22287;50.824;5.644;2023-02-28T03:51:45;102121.47;;;1.32;61.60
36248;BME280;22287;50.824;5.644;2023-02-28T03:54:19;102125.88;;;1.68;60.43
36248;BME280;22287;50.824;5.644;2023-02-28T03:56:55;102127.19;;;1.50;61.65
36248;BME280;22287;50.824;5.644;2023-02-28T03:59:44;102131.22;;;0.96;62.62
36248;BME280;22287;50.824;5.644;2023-02-28T04:02:12;102128.84;;;1.21;62.71
36248;BME280;22287;50.824;5.644;2023-02-28T04:04:39;102122.47;;;1.63;61.47
36248;BME280;22287;50.824;5.644;2023-02-28T04:07:15;102125.25;;;1.22;62.79
36248;BME280;22287;50.824;5.644;2023-02-28T04:09:42;102127.69;;;1.31;62.85
36248;BME280;22287;50.824;5.644;2023-02-28T04:12:09;102129.66;;;1.23;61.73
36248;BME280;22287;50.824;5.644;2023-02-28T04:14:36;102130.81;;;1.12;63.02
36248;BME280;22287;50.824;5.644;2023-02-28T04:17:03;102123.34;;;1.62;62.08
36248;BME280;22287;50.824;5.644;2023-02-28T04:19:30;102119.13;;;1.87;60.91
36248;BME280;22287;50.824;5.644;2023-02-28T04:21:57;102119.72;;;1.31;63.04
36248;BME280;22287;50.824;5.644;2023-02-28T04:24:26;102120.97;;;1.51;62.32
36248;BME280;22287;50.824;5.644;2023-02-28T04:26:55;102133.09;;;1.28;62.74
36248;BME280;22287;50.824;5.644;2023-02-28T04:29:28;102135.84;;;1.60;62.43
36248;BME280;22287;50.824;5.644;2023-02-28T04:31:56;102128.47;;;2.02;60.64
36248;BME280;22287;50.824;5.644;2023-02-28T04:34:27;102135.28;;;1.81;61.38
36248;BME280;22287;50.824;5.644;2023-02-28T04:36:55;102127.56;;;1.70;61.97
36248;BME280;22287;50.824;5.644;2023-02-28T04:39:37;102132.59;;;1.49;62.22
36248;BME280;22287;50.824;5.644;2023-02-28T04:42:04;102129.75;;;1.55;62.55
36248;BME280;22287;50.824;5.644;2023-02-28T04:44:31;102128.53;;;1.68;62.12
36248;BME280;22287;50.824;5.644;2023-02-28T04:47:01;102127.34;;;1.44;62.47
36248;BME280;22287;50.824;5.644;2023-02-28T04:49:28;102130.78;;;1.49;62.58
36248;BME280;22287;50.824;5.644;2023-02-28T04:51:55;102135.72;;;1.64;62.26
36248;BME280;22287;50.824;5.644;2023-02-28T04:54:22;102133.44;;;1.49;61.97
36248;BME280;22287;50.824;5.644;2023-02-28T04:56:49;102124.84;;;1.38;62.22
36248;BME280;22287;50.824;5.644;2023-02-28T04:59:17;102130.75;;;1.15;63.09
36248;BME280;22287;50.824;5.644;2023-02-28T05:01:48;102140.47;;;1.16;62.72
36248;BME280;22287;50.824;5.644;2023-02-28T05:04:15;102139.16;;;0.97;63.81
36248;BME280;22287;50.824;5.644;2023-02-28T05:06:42;102129.75;;;1.19;63.34
36248;BME280;22287;50.824;5.644;2023-02-28T05:09:09;102131.09;;;1.37;62.55
36248;BME280;22287;50.824;5.644;2023-02-28T05:11:38;102131.28;;;1.30;62.57
36248;BME280;22287;50.824;5.644;2023-02-28T05:14:14;102138.06;;;1.43;62.31
36248;BME280;22287;50.824;5.644;2023-02-28T05:16:41;102136.47;;;0.97;63.10
36248;BME280;22287;50.824;5.644;2023-02-28T05:19:09;102140.78;;;1.04;63.42
36248;BME280;22287;50.824;5.644;2023-02-28T05:21:52;102138.47;;;1.26;62.71
36248;BME280;22287;50.824;5.644;2023-02-28T05:24:19;102141.22;;;1.22;62.73
36248;BME280;22287;50.824;5.644;2023-02-28T05:26:52;102136.59;;;0.93;63.11
36248;BME280;22287;50.824;5.644;2023-02-28T05:29:19;102139.38;;;1.25;62.96
36248;BME280;22287;50.824;5.644;2023-02-28T05:31:46;102136.84;;;1.19;62.09
36248;BME280;22287;50.824;5.644;2023-02-28T05:34:14;102125.31;;;1.20;62.60
36248;BME280;22287;50.824;5.644;2023-02-28T05:36:42;102137.47;;;0.93;63.31
36248;BME280;22287;50.824;5.644;2023-02-28T05:39:09;102126.72;;;0.58;64.26
36248;BME280;22287;50.824;5.644;2023-02-28T05:41:41;102137.25;;;1.02;63.27
36248;BME280;22287;50.824;5.644;2023-02-28T05:44:08;102131.00;;;1.05;62.89
36248;BME280;22287;50.824;5.644;2023-02-28T05:46:35;102134.00;;;0.90;63.02
36248;BME280;22287;50.824;5.644;2023-02-28T05:49:02;102142.44;;;1.08;63.30
36248;BME280;22287;50.824;5.644;2023-02-28T05:51:29;102129.66;;;1.23;62.38
36248;BME280;22287;50.824;5.644;2023-02-28T05:54:00;102140.72;;;1.07;62.17
36248;BME280;22287;50.824;5.644;2023-02-28T05:56:28;102131.84;;;1.05;63.08
36248;BME280;22287;50.824;5.644;2023-02-28T05:58:54;102142.44;;;1.08;62.33
36248;BME280;22287;50.824;5.644;2023-02-28T06:01:30;102138.50;;;0.88;62.68
36248;BME280;22287;50.824;5.644;2023-02-28T06:04:01;102139.81;;;1.07;61.81
36248;BME280;22287;50.824;5.644;2023-02-28T06:06:28;102142.69;;;0.98;63.04
36248;BME280;22287;50.824;5.644;2023-02-28T06:08:56;102140.09;;;0.96;63.14
36248;BME280;22287;50.824;5.644;2023-02-28T06:11:23;102138.81;;;0.73;63.87
36248;BME280;22287;50.824;5.644;2023-02-28T06:13:54;102134.56;;;0.64;64.28
36248;BME280;22287;50.824;5.644;2023-02-28T06:16:23;102141.06;;;0.51;64.26
36248;BME280;22287;50.824;5.644;2023-02-28T06:18:50;102135.22;;;0.34;65.33
36248;BME280;22287;50.824;5.644;2023-02-28T06:21:19;102142.91;;;0.47;65.54
36248;BME280;22287;50.824;5.644;2023-02-28T06:23:45;102147.03;;;-0.27;66.96
36248;BME280;22287;50.824;5.644;2023-02-28T06:26:12;102148.72;;;0.25;65.43
36248;BME280;22287;50.824;5.644;2023-02-28T06:28:39;102152.78;;;0.44;64.99
36248;BME280;22287;50.824;5.644;2023-02-28T06:31:08;102151.88;;;0.83;64.40
36248;BME280;22287;50.824;5.644;2023-02-28T06:33:36;102158.38;;;0.72;64.24
36248;BME280;22287;50.824;5.644;2023-02-28T06:36:04;102160.03;;;0.36;65.28
36248;BME280;22287;50.824;5.644;2023-02-28T06:38:32;102160.69;;;0.45;65.15
36248;BME280;22287;50.824;5.644;2023-02-28T06:41:00;102162.53;;;0.42;64.95
36248;BME280;22287;50.824;5.644;2023-02-28T06:43:30;102162.81;;;0.30;65.95
36248;BME280;22287;50.824;5.644;2023-02-28T06:45:59;102164.19;;;0.05;66.57
36248;BME280;22287;50.824;5.644;2023-02-28T06:48:26;102174.34;;;0.72;64.93
36248;BME280;22287;50.824;5.644;2023-02-28T06:51:09;102182.25;;;-0.16;66.47
36248;BME280;22287;50.824;5.644;2023-02-28T06:53:36;102177.66;;;-0.06;66.74
36248;BME280;22287;50.824;5.644;2023-02-28T06:56:08;102180.13;;;0.05;66.91
36248;BME280;22287;50.824;5.644;2023-02-28T06:58:36;102186.53;;;0.39;65.61
36248;BME280;22287;50.824;5.644;2023-02-28T07:01:04;102186.31;;;0.05;65.95
36248;BME280;22287;50.824;5.644;2023-02-28T07:03:31;102187.91;;;0.15;65.94
36248;BME280;22287;50.824;5.644;2023-02-28T07:06:00;102192.34;;;-0.34;67.34
36248;BME280;22287;50.824;5.644;2023-02-28T07:08:27;102200.06;;;-0.21;67.39
36248;BME280;22287;50.824;5.644;2023-02-28T07:10:55;102199.41;;;0.16;65.96
36248;BME280;22287;50.824;5.644;2023-02-28T07:13:23;102203.78;;;0.18;66.07
36248;BME280;22287;50.824;5.644;2023-02-28T07:15:54;102201.19;;;0.59;64.70
36248;BME280;22287;50.824;5.644;2023-02-28T07:18:21;102204.78;;;0.11;65.76
36248;BME280;22287;50.824;5.644;2023-02-28T07:20:48;102205.19;;;0.37;65.23
36248;BME280;22287;50.824;5.644;2023-02-28T07:23:15;102206.97;;;-0.11;66.26
36248;BME280;22287;50.824;5.644;2023-02-28T07:25:42;102208.16;;;0.21;66.14
36248;BME280;22287;50.824;5.644;2023-02-28T07:28:09;102205.19;;;-0.10;66.88
36248;BME280;22287;50.824;5.644;2023-02-28T07:30:36;102212.97;;;0.02;66.25
36248;BME280;22287;50.824;5.644;2023-02-28T07:33:02;102204.53;;;0.26;66.00
36248;BME280;22287;50.824;5.644;2023-02-28T07:35:31;102198.63;;;0.55;65.30
36248;BME280;22287;50.824;5.644;2023-02-28T07:37:58;102199.16;;;0.29;65.34
36248;BME280;22287;50.824;5.644;2023-02-28T07:40:25;102202.59;;;-0.13;66.61
36248;BME280;22287;50.824;5.644;2023-02-28T07:42:52;102200.34;;;0.13;65.47
36248;BME280;22287;50.824;5.644;2023-02-28T07:45:19;102207.38;;;0.16;66.21
36248;BME280;22287;50.824;5.644;2023-02-28T07:47:46;102203.19;;;0.48;65.72
36248;BME280;22287;50.824;5.644;2023-02-28T07:50:15;102205.81;;;0.93;64.18
36248;BME280;22287;50.824;5.644;2023-02-28T07:52:42;102209.84;;;0.71;64.52
36248;BME280;22287;50.824;5.644;2023-02-28T07:55:09;102205.34;;;0.73;63.67
36248;BME280;22287;50.824;5.644;2023-02-28T07:57:37;102201.44;;;0.90;64.34
36248;BME280;22287;50.824;5.644;2023-02-28T08:00:06;102202.63;;;1.52;61.93
36248;BME280;22287;50.824;5.644;2023-02-28T08:02:39;102203.19;;;0.48;63.75
36248;BME280;22287;50.824;5.644;2023-02-28T08:05:07;102208.00;;;0.73;63.70
36248;BME280;22287;50.824;5.644;2023-02-28T08:07:34;102211.66;;;0.67;63.54
36248;BME280;22287;50.824;5.644;2023-02-28T08:10:00;102212.53;;;1.09;63.34
36248;BME280;22287;50.824;5.644;2023-02-28T08:12:27;102211.03;;;1.36;62.15
36248;BME280;22287;50.824;5.644;2023-02-28T08:14:54;102215.56;;;0.92;62.31
36248;BME280;22287;50.824;5.644;2023-02-28T08:17:21;102219.34;;;0.82;63.43
36248;BME280;22287;50.824;5.644;2023-02-28T08:19:48;102210.31;;;0.89;62.84
36248;BME280;22287;50.824;5.644;2023-02-28T08:22:14;102221.69;;;1.36;61.71
36248;BME280;22287;50.824;5.644;2023-02-28T08:24:41;102216.97;;;1.10;61.35
36248;BME280;22287;50.824;5.644;2023-02-28T08:27:09;102217.16;;;1.41;61.17
36248;BME280;22287;50.824;5.644;2023-02-28T08:29:37;102220.13;;;1.64;60.03
36248;BME280;22287;50.824;5.644;2023-02-28T08:32:05;102215.09;;;1.87;59.90
36248;BME280;22287;50.824;5.644;2023-02-28T08:34:42;102218.41;;;1.61;59.79
36248;BME280;22287;50.824;5.644;2023-02-28T08:37:11;102221.47;;;1.80;59.25
36248;BME280;22287;50.824;5.644;2023-02-28T08:39:38;102219.06;;;1.71;59.13
36248;BME280;22287;50.824;5.644;2023-02-28T08:42:05;102213.63;;;1.74;59.60
36248;BME280;22287;50.824;5.644;2023-02-28T08:44:33;102211.53;;;2.53;56.39
36248;BME280;22287;50.824;5.644;2023-02-28T08:47:00;102211.09;;;2.37;57.40
36248;BME280;22287;50.824;5.644;2023-02-28T08:49:27;102215.59;;;2.66;57.47
36248;BME280;22287;50.824;5.644;2023-02-28T08:51:55;102210.72;;;2.49;55.75
36248;BME280;22287;50.824;5.644;2023-02-28T08:54:24;102213.91;;;1.99;56.86
36248;BME280;22287;50.824;5.644;2023-02-28T08:56:51;102215.44;;;2.07;58.20
36248;BME280;22287;50.824;5.644;2023-02-28T08:59:18;102212.47;;;2.19;56.96
36248;BME280;22287;50.824;5.644;2023-02-28T09:01:45;102216.84;;;2.22;56.10
36248;BME280;22287;50.824;5.644;2023-02-28T09:04:11;102211.06;;;2.05;56.73
36248;BME280;22287;50.824;5.644;2023-02-28T09:06:40;102211.22;;;2.63;55.60
36248;BME280;22287;50.824;5.644;2023-02-28T09:09:06;102206.34;;;2.47;56.37
36248;BME280;22287;50.824;5.644;2023-02-28T09:11:34;102215.25;;;2.15;56.17
36248;BME280;22287;50.824;5.644;2023-02-28T09:14:02;102208.81;;;2.23;56.36
36248;BME280;22287;50.824;5.644;2023-02-28T09:16:34;102206.66;;;2.36;56.02
36248;BME280;22287;50.824;5.644;2023-02-28T09:19:01;102215.78;;;2.27;56.22
36248;BME280;22287;50.824;5.644;2023-02-28T09:21:28;102205.00;;;2.63;53.83
36248;BME280;22287;50.824;5.644;2023-02-28T09:23:55;102208.88;;;2.82;52.75
36248;BME280;22287;50.824;5.644;2023-02-28T09:26:25;102206.97;;;2.87;52.75
36248;BME280;22287;50.824;5.644;2023-02-28T09:28:54;102193.50;;;2.90;52.46
36248;BME280;22287;50.824;5.644;2023-02-28T09:31:23;102194.59;;;3.12;50.88
36248;BME280;22287;50.824;5.644;2023-02-28T09:33:53;102193.97;;;3.33;50.00
36248;BME280;22287;50.824;5.644;2023-02-28T09:36:21;102188.84;;;2.98;50.39
36248;BME280;22287;50.824;5.644;2023-02-28T09:38:52;102187.78;;;3.04;49.86
36248;BME280;22287;50.824;5.644;2023-02-28T09:41:21;102190.84;;;2.61;50.34
36248;BME280;22287;50.824;5.644;2023-02-28T09:43:59;102175.66;;;2.92;49.50
36248;BME280;22287;50.824;5.644;2023-02-28T09:46:35;102185.44;;;3.21;49.91
36248;BME280;22287;50.824;5.644;2023-02-28T09:49:10;102182.28;;;3.36;49.93
36248;BME280;22287;50.824;5.644;2023-02-28T09:54:16;102172.75;;;3.55;48.39
36248;BME280;22287;50.824;5.644;2023-02-28T09:56:51;102186.28;;;3.23;49.30
36248;BME280;22287;50.824;5.644;2023-02-28T10:04:50;102182.22;;;3.37;48.42
36248;BME280;22287;50.824;5.644;2023-02-28T10:10:03;102184.78;;;3.42;48.15
36248;BME280;22287;50.824;5.644;2023-02-28T10:12:31;102185.25;;;3.81;48.13
36248;BME280;22287;50.824;5.644;2023-02-28T10:15:00;102187.63;;;3.64;46.43
36248;BME280;22287;50.824;5.644;2023-02-28T10:17:38;102178.09;;;3.81;44.45
36248;BME280;22287;50.824;5.644;2023-02-28T10:20:19;102185.22;;;4.07;44.96
36248;BME280;22287;50.824;5.644;2023-02-28T10:25:36;102178.47;;;3.43;46.57
36248;BME280;22287;50.824;5.644;2023-02-28T10:28:14;102178.81;;;3.34;46.13
36248;BME280;22287;50.824;5.644;2023-02-28T10:30:47;102181.59;;;3.29;46.31
36248;BME280;22287;50.824;5.644;2023-02-28T10:33:24;102174.00;;;3.43;45.68
36248;BME280;22287;50.824;5.644;2023-02-28T10:35:52;102173.81;;;3.76;44.39
36248;BME280;22287;50.824;5.644;2023-02-28T10:38:28;102176.41;;;3.52;44.51
36248;BME280;22287;50.824;5.644;2023-02-28T10:41:06;102176.22;;;3.59;45.45
36248;BME280;22287;50.824;5.644;2023-02-28T10:43:34;102170.19;;;3.78;45.86
36248;BME280;22287;50.824;5.644;2023-02-28T10:46:05;102174.50;;;3.82;43.54
36248;BME280;22287;50.824;5.644;2023-02-28T10:48:50;102166.53;;;3.81;44.62
36248;BME280;22287;50.824;5.644;2023-02-28T10:51:24;102167.63;;;3.75;45.04
36248;BME280;22287;50.824;5.644;2023-02-28T10:53:52;102152.13;;;3.85;43.08
36248;BME280;22287;50.824;5.644;2023-02-28T10:56:28;102160.69;;;3.70;42.74
36248;BME280;22287;50.824;5.644;2023-02-28T11:01:39;102158.84;;;3.96;42.49
36248;BME280;22287;50.824;5.644;2023-02-28T11:07:22;102148.44;;;4.13;40.91
36248;BME280;22287;50.824;5.644;2023-02-28T11:09:52;102138.53;;;4.63;40.55
36248;BME280;22287;50.824;5.644;2023-02-28T11:12:22;102147.38;;;4.65;39.26
36248;BME280;22287;50.824;5.644;2023-02-28T11:14:52;102144.34;;;4.74;39.21
36248;BME280;22287;50.824;5.644;2023-02-28T11:17:26;102142.28;;;4.81;38.10
36248;BME280;22287;50.824;5.644;2023-02-28T11:19:57;102133.25;;;5.07;39.04
36248;BME280;22287;50.824;5.644;2023-02-28T11:22:27;102136.56;;;5.13;38.65
36248;BME280;22287;50.824;5.644;2023-02-28T11:25:01;102132.63;;;5.22;38.14
36248;BME280;22287;50.824;5.644;2023-02-28T11:30:00;102126.59;;;4.72;38.20
36248;BME280;22287;50.824;5.644;2023-02-28T11:32:29;102136.53;;;4.45;38.53
36248;BME280;22287;50.824;5.644;2023-02-28T11:35:36;102126.16;;;4.13;39.10
36248;BME280;22287;50.824;5.644;2023-02-28T11:38:01;102125.31;;;4.36;38.82
36248;BME280;22287;50.824;5.644;2023-02-28T11:40:42;102127.13;;;5.03;38.58
36248;BME280;22287;50.824;5.644;2023-02-28T11:56:26;102101.94;;;5.51;38.83
36248;BME280;22287;50.824;5.644;2023-02-28T12:04:47;102115.50;;;5.04;37.14
36248;BME280;22287;50.824;5.644;2023-02-28T12:07:38;102110.88;;;5.08;37.51
36248;BME280;22287;50.824;5.644;2023-02-28T12:10:17;102117.81;;;5.35;37.94
36248;BME280;22287;50.824;5.644;2023-02-28T12:26:31;102098.97;;;5.15;37.40
36248;BME280;22287;50.824;5.644;2023-02-28T12:29:04;102103.81;;;5.49;36.42
36248;BME280;22287;50.824;5.644;2023-02-28T12:31:38;102092.53;;;5.82;35.76
36248;BME280;22287;50.824;5.644;2023-02-28T12:34:13;102099.47;;;5.46;38.59
36248;BME280;22287;50.824;5.644;2023-02-28T12:36:43;102091.28;;;5.69;37.03
36248;BME280;22287;50.824;5.644;2023-02-28T12:39:23;102095.09;;;5.22;37.27
36248;BME280;22287;50.824;5.644;2023-02-28T12:42:01;102094.41;;;5.39;38.43
36248;BME280;22287;50.824;5.644;2023-02-28T12:44:40;102088.66;;;5.48;38.23
36248;BME280;22287;50.824;5.644;2023-02-28T12:47:16;102098.06;;;5.36;37.31
36248;BME280;22287;50.824;5.644;2023-02-28T12:50:05;102089.00;;;5.18;36.96
36248;BME280;22287;50.824;5.644;2023-02-28T13:09:14;102061.53;;;6.16;36.61
36248;BME280;22287;50.824;5.644;2023-02-28T13:11:43;102061.91;;;5.88;36.62
36248;BME280;22287;50.824;5.644;2023-02-28T13:19:37;102051.47;;;6.21;35.48
36248;BME280;22287;50.824;5.644;2023-02-28T13:22:17;102047.19;;;5.97;36.95
36248;BME280;22287;50.824;5.644;2023-02-28T13:24:48;102052.50;;;6.37;36.51
36248;BME280;22287;50.824;5.644;2023-02-28T13:29:42;102052.50;;;6.37;37.74
36248;BME280;22287;50.824;5.644;2023-02-28T13:37:36;102056.63;;;6.05;36.78
36248;BME280;22287;50.824;5.644;2023-02-28T13:42:47;102046.59;;;6.29;36.82
36248;BME280;22287;50.824;5.644;2023-02-28T13:45:22;102051.22;;;5.86;37.48
36248;BME280;22287;50.824;5.644;2023-02-28T13:48:15;102041.69;;;6.00;38.13
36248;BME280;22287;50.824;5.644;2023-02-28T13:50:43;102047.75;;;6.05;38.33
36248;BME280;22287;50.824;5.644;2023-02-28T13:59:16;102047.75;;;6.23;38.59
36248;BME280;22287;50.824;5.644;2023-02-28T14:05:20;102033.88;;;6.14;39.02
36248;BME280;22287;50.824;5.644;2023-02-28T14:07:56;102032.84;;;5.98;38.52
36248;BME280;22287;50.824;5.644;2023-02-28T14:10:29;102029.53;;;6.30;38.41
36248;BME280;22287;50.824;5.644;2023-02-28T14:12:58;102032.38;;;6.27;39.34
36248;BME280;22287;50.824;5.644;2023-02-28T14:15:44;102038.00;;;5.62;39.90
36248;BME280;22287;50.824;5.644;2023-02-28T14:18:33;102036.72;;;5.70;39.72
36248;BME280;22287;50.824;5.644;2023-02-28T14:32:13;102038.03;;;6.21;38.65
36248;BME280;22287;50.824;5.644;2023-02-28T14:34:55;102033.59;;;6.20;39.01
36248;BME280;22287;50.824;5.644;2023-02-28T14:37:30;102029.47;;;6.13;40.12
36248;BME280;22287;50.824;5.644;2023-02-28T14:39:59;102021.09;;;6.00;38.53
36248;BME280;22287;50.824;5.644;2023-02-28T14:42:29;102024.00;;;5.96;39.33
36248;BME280;22287;50.824;5.644;2023-02-28T14:44:57;102027.34;;;5.60;40.18
36248;BME280;22287;50.824;5.644;2023-02-28T14:47:30;102026.00;;;5.70;40.17
36248;BME280;22287;50.824;5.644;2023-02-28T14:49:59;102015.16;;;5.94;39.77
36248;BME280;22287;50.824;5.644;2023-02-28T14:52:30;102027.34;;;5.60;39.17
36248;BME280;22287;50.824;5.644;2023-02-28T14:55:03;102017.88;;;5.52;40.73
36248;BME280;22287;50.824;5.644;2023-02-28T14:57:33;102025.19;;;5.48;40.29
36248;BME280;22287;50.824;5.644;2023-02-28T15:00:04;102021.28;;;5.75;40.79
36248;BME280;22287;50.824;5.644;2023-02-28T15:02:38;102016.06;;;5.93;39.55
36248;BME280;22287;50.824;5.644;2023-02-28T15:07:45;101999.34;;;6.06;39.19
36248;BME280;22287;50.824;5.644;2023-02-28T15:10:25;101996.41;;;5.92;39.97
36248;BME280;22287;50.824;5.644;2023-02-28T15:15:21;102009.09;;;5.68;40.52
36248;BME280;22287;50.824;5.644;2023-02-28T15:17:53;102005.09;;;5.38;40.99
36248;BME280;22287;50.824;5.644;2023-02-28T15:20:23;102004.34;;;5.34;40.52
36248;BME280;22287;50.824;5.644;2023-02-28T15:22:52;102005.06;;;5.99;40.01
36248;BME280;22287;50.824;5.644;2023-02-28T15:25:22;102012.19;;;5.59;40.41
36248;BME280;22287;50.824;5.644;2023-02-28T15:27:52;102003.91;;;5.84;39.61
36248;BME280;22287;50.824;5.644;2023-02-28T15:30:25;102011.88;;;5.25;41.10
36248;BME280;22287;50.824;5.644;2023-02-28T15:33:22;102005.88;;;6.01;40.38
36248;BME280;22287;50.824;5.644;2023-02-28T15:35:49;102007.41;;;5.46;40.58
36248;BME280;22287;50.824;5.644;2023-02-28T15:38:23;102017.06;;;5.70;41.33
36248;BME280;22287;50.824;5.644;2023-02-28T15:40:56;102013.66;;;5.46;40.98
36248;BME280;22287;50.824;5.644;2023-02-28T15:48:35;102007.22;;;5.70;40.75
36248;BME280;22287;50.824;5.644;2023-02-28T15:51:17;102015.81;;;5.38;41.41